createdAt,value
2017-05-21T00:01:33.027Z,74.30
2017-05-21T00:04:01.792Z,73.60
2017-05-21T00:06:30.563Z,74.10
2017-05-21T00:08:59.351Z,74.30
2017-05-21T00:11:28.111Z,73.70
2017-05-21T00:13:56.879Z,74.60
2017-05-21T00:16:25.655Z,74.40
2017-05-21T00:18:54.419Z,75.20
2017-05-21T00:21:23.231Z,75.00
2017-05-21T00:23:51.963Z,74.30
2017-05-21T00:26:20.723Z,76.40
2017-05-21T00:28:49.483Z,77.00
2017-05-21T00:31:19.151Z,78.30
2017-05-21T00:33:47.911Z,77.70
2017-05-21T00:36:16.671Z,77.60
2017-05-21T00:38:45.438Z,77.50
2017-05-21T00:41:14.195Z,77.40
2017-05-21T00:43:44.899Z,75.30
2017-05-21T00:46:13.658Z,75.40
2017-05-21T00:48:42.423Z,75.10
2017-05-21T00:51:14.618Z,77.40
2017-05-21T00:53:43.379Z,76.80
2017-05-21T00:56:13.043Z,75.80
2017-05-21T00:58:41.815Z,76.10
2017-05-21T01:01:10.575Z,76.90
2017-05-21T01:03:39.339Z,76.00
2017-05-21T01:06:08.110Z,75.80
2017-05-21T01:08:36.875Z,75.80
2017-05-21T01:11:05.655Z,74.30
2017-05-21T01:13:34.439Z,74.70
2017-05-21T01:16:03.202Z,74.60
2017-05-21T01:18:31.958Z,74.80
2017-05-21T01:21:00.734Z,76.00
2017-05-21T01:23:29.494Z,77.30
2017-05-21T01:25:58.257Z,77.20
2017-05-21T01:28:27.935Z,76.90
2017-05-21T01:30:56.695Z,77.40
2017-05-21T01:33:25.446Z,77.50
2017-05-21T01:35:54.218Z,78.40
2017-05-21T01:38:22.999Z,78.50
2017-05-21T01:40:51.746Z,78.80
2017-05-21T01:43:19.760Z,78.70
2017-05-21T01:45:48.522Z,79.00
2017-05-21T01:48:17.279Z,79.80
2017-05-21T01:50:46.050Z,78.90
2017-05-21T01:53:14.814Z,78.90
2017-05-21T01:55:43.583Z,79.60
2017-05-21T01:58:12.370Z,79.70
2017-05-21T02:00:41.129Z,78.90
2017-05-21T02:03:09.885Z,78.90
2017-05-21T02:05:38.669Z,78.80
2017-05-21T02:08:07.430Z,79.30
2017-05-21T02:10:36.206Z,79.80
2017-05-21T02:13:04.998Z,80.20
2017-05-21T02:15:33.754Z,80.30
2017-05-21T02:18:02.525Z,80.30
2017-05-21T02:20:31.298Z,80.10
2017-05-21T02:23:00.057Z,80.40
2017-05-21T02:25:28.817Z,80.40
2017-05-21T02:27:57.586Z,80.30
2017-05-21T02:30:26.346Z,79.90
2017-05-21T02:32:55.109Z,78.60
2017-05-21T02:35:23.889Z,78.20
2017-05-21T02:37:52.649Z,77.70
2017-05-21T02:40:21.405Z,77.70
2017-05-21T02:42:50.174Z,78.10
2017-05-21T02:45:18.934Z,78.00
2017-05-21T02:47:47.689Z,78.70
2017-05-21T02:50:16.489Z,78.80
2017-05-21T02:52:45.241Z,79.60
2017-05-21T02:55:13.993Z,80.90
2017-05-21T02:57:42.761Z,81.10
2017-05-21T03:00:11.529Z,79.10
2017-05-21T03:02:40.293Z,79.20
2017-05-21T03:05:09.094Z,78.20
2017-05-21T03:07:39.757Z,78.50
2017-05-21T03:10:08.541Z,78.60
2017-05-21T03:12:37.317Z,78.30
2017-05-21T03:15:06.073Z,78.40
2017-05-21T03:17:34.834Z,79.50
2017-05-21T03:20:03.621Z,79.50
2017-05-21T03:22:32.381Z,79.00
2017-05-21T03:25:01.141Z,76.50
2017-05-21T03:27:29.921Z,75.30
2017-05-21T03:29:58.681Z,75.30
2017-05-21T03:32:27.441Z,76.30
2017-05-21T03:34:56.213Z,77.60
2017-05-21T03:37:24.970Z,77.10
2017-05-21T03:39:53.737Z,76.50
2017-05-21T03:42:22.504Z,77.40
2017-05-21T03:44:51.268Z,78.60
2017-05-21T03:47:20.029Z,78.00
2017-05-21T03:49:48.796Z,77.60
2017-05-21T03:52:17.556Z,77.40
2017-05-21T03:54:46.317Z,77.90
2017-05-21T03:57:15.104Z,78.10
2017-05-21T03:59:43.868Z,78.60
2017-05-21T04:02:12.628Z,78.60
2017-05-21T04:04:41.397Z,78.60
2017-05-21T04:07:10.160Z,79.00
2017-05-21T04:09:38.924Z,78.40
2017-05-21T04:12:07.692Z,79.20
2017-05-21T04:14:36.508Z,78.20
2017-05-21T04:17:05.233Z,77.30
2017-05-21T04:19:34.024Z,78.30
2017-05-21T04:22:02.783Z,78.40
2017-05-21T04:24:32.528Z,79.10
2017-05-21T04:27:01.300Z,79.30
2017-05-21T04:29:30.064Z,79.00
2017-05-21T04:31:58.824Z,78.10
2017-05-21T04:34:27.616Z,78.70
2017-05-21T04:36:56.376Z,79.50
2017-05-21T04:39:25.137Z,80.20
2017-05-21T04:41:53.920Z,81.10
2017-05-21T04:44:22.684Z,81.50
2017-05-21T04:46:51.443Z,81.30
2017-05-21T04:49:20.244Z,80.30
2017-05-21T04:51:49.000Z,78.30
2017-05-21T04:54:17.771Z,78.20
2017-05-21T04:56:46.543Z,76.80
2017-05-21T04:59:15.319Z,76.80
2017-05-21T05:01:44.083Z,76.20
2017-05-21T05:04:12.863Z,75.80
2017-05-21T05:06:41.628Z,75.50
2017-05-21T05:09:10.395Z,75.80
2017-05-21T05:11:39.231Z,75.60
2017-05-21T05:14:07.964Z,75.20
2017-05-21T05:16:36.727Z,77.20
2017-05-21T05:19:05.511Z,75.90
2017-05-21T05:21:34.283Z,75.40
2017-05-21T05:24:03.951Z,75.30
2017-05-21T05:26:32.764Z,75.30
2017-05-21T05:29:01.535Z,75.10
2017-05-21T05:31:30.315Z,74.30
2017-05-21T05:33:59.115Z,74.70
2017-05-21T05:36:27.881Z,74.50
2017-05-21T05:38:57.587Z,73.90
2017-05-21T05:41:26.355Z,73.90
2017-05-21T05:43:56.099Z,73.40
2017-05-21T05:46:25.811Z,73.60
2017-05-21T05:48:54.584Z,73.80
2017-05-21T05:51:22.586Z,74.30
2017-05-21T05:53:51.371Z,72.50
2017-05-21T05:56:20.135Z,72.40
2017-05-21T05:58:48.902Z,71.20
2017-05-21T06:01:17.683Z,71.60
2017-05-21T06:03:46.467Z,71.20
2017-05-21T06:06:15.235Z,71.40
2017-05-21T06:08:44.023Z,70.90
2017-05-21T06:11:12.799Z,70.10
2017-05-21T06:13:41.570Z,70.40
2017-05-21T06:16:10.355Z,69.70
2017-05-21T06:18:39.124Z,69.70
2017-05-21T06:21:08.787Z,68.90
2017-05-21T06:23:38.475Z,69.60
2017-05-21T06:26:07.247Z,68.90
2017-05-21T06:28:36.014Z,68.40
2017-05-21T06:31:06.767Z,67.70
2017-05-21T06:33:35.542Z,68.20
2017-05-21T06:36:04.315Z,67.70
2017-05-21T06:38:33.090Z,67.00
2017-05-21T06:41:01.862Z,66.60
2017-05-21T06:43:30.642Z,66.60
2017-05-21T06:45:59.442Z,67.10
2017-05-21T06:48:28.215Z,67.00
2017-05-21T06:50:56.991Z,65.80
2017-05-21T06:53:25.783Z,65.50
2017-05-21T06:55:54.563Z,64.70
2017-05-21T06:58:23.326Z,65.00
2017-05-21T07:00:52.099Z,63.80
2017-05-21T07:03:20.870Z,64.00
2017-05-21T07:05:49.638Z,64.10
2017-05-21T07:08:18.413Z,62.60
2017-05-21T07:10:47.186Z,62.30
2017-05-21T07:13:15.958Z,62.00
2017-05-21T07:15:44.741Z,62.90
2017-05-21T07:20:48.670Z,60.40
2017-05-21T07:23:17.434Z,61.00
2017-05-21T07:25:46.210Z,61.40
2017-05-21T07:28:15.002Z,60.40
2017-05-21T07:30:43.765Z,60.00
2017-05-21T07:33:12.533Z,59.60
2017-05-21T07:35:41.322Z,58.70
2017-05-21T07:38:10.090Z,58.70
2017-05-21T07:40:38.905Z,58.50
2017-05-21T07:43:07.689Z,59.60
2017-05-21T07:45:36.449Z,58.90
2017-05-21T07:48:05.214Z,59.50
2017-05-21T07:50:33.985Z,58.30
2017-05-21T07:53:02.753Z,58.40
2017-05-21T07:55:31.517Z,58.70
2017-05-21T07:58:00.297Z,58.10
2017-05-21T08:00:29.074Z,57.00
2017-05-21T08:02:57.841Z,57.70
2017-05-21T08:05:26.612Z,57.80
2017-05-21T08:07:55.377Z,57.00
2017-05-21T08:10:24.141Z,57.40
2017-05-21T08:12:52.921Z,56.80
2017-05-21T08:15:21.696Z,57.70
2017-05-21T08:17:50.469Z,57.40
2017-05-21T08:20:19.242Z,55.70
2017-05-21T08:22:48.012Z,56.70
2017-05-21T08:25:16.785Z,57.10
2017-05-21T08:27:45.577Z,56.10
2017-05-21T08:30:14.357Z,56.20
2017-05-21T08:32:44.091Z,56.00
2017-05-21T08:35:14.821Z,55.40
2017-05-21T08:37:43.585Z,55.30
2017-05-21T08:40:12.349Z,54.90
2017-05-21T08:42:41.125Z,54.50
2017-05-21T08:45:09.893Z,54.90
2017-05-21T08:47:38.935Z,54.20
2017-05-21T08:50:09.705Z,53.40
2017-05-21T08:52:38.969Z,53.00
2017-05-21T08:55:08.957Z,54.40
2017-05-21T08:57:39.196Z,53.50
2017-05-21T09:00:09.401Z,53.70
2017-05-21T09:02:40.664Z,53.70
2017-05-21T09:05:09.892Z,52.70
2017-05-21T09:07:39.978Z,50.50
2017-05-21T09:10:10.241Z,49.60
2017-05-21T09:12:39.407Z,51.00
2017-05-21T09:15:08.552Z,51.00
2017-05-21T09:17:37.718Z,50.10
2017-05-21T09:20:06.484Z,48.90
2017-05-21T09:22:35.244Z,50.00
2017-05-21T09:25:04.820Z,50.00
2017-05-21T09:27:33.596Z,49.80
2017-05-21T09:30:02.356Z,47.60
2017-05-21T09:32:31.144Z,48.30
2017-05-21T09:34:59.928Z,47.80
2017-05-21T09:37:28.688Z,48.70
2017-05-21T09:39:57.505Z,47.10
2017-05-21T09:42:26.276Z,46.20
2017-05-21T09:44:55.045Z,44.80
2017-05-21T09:47:23.880Z,43.90
2017-05-21T09:49:53.601Z,44.10
2017-05-21T09:52:22.364Z,45.20
2017-05-21T09:54:51.144Z,45.00
2017-05-21T09:57:19.907Z,44.10
2017-05-21T09:59:48.692Z,45.10
2017-05-21T10:02:17.467Z,46.50
2017-05-21T10:04:46.232Z,48.60
2017-05-21T10:07:15.017Z,47.00
2017-05-21T10:09:44.729Z,46.50
2017-05-21T10:12:13.497Z,44.40
2017-05-21T10:14:42.267Z,44.00
2017-05-21T10:17:11.036Z,44.00
2017-05-21T10:19:39.803Z,44.20
2017-05-21T10:22:07.827Z,44.20
2017-05-21T10:24:36.615Z,42.20
2017-05-21T10:27:05.439Z,44.20
2017-05-21T10:29:34.151Z,42.60
2017-05-21T10:32:02.935Z,44.60
2017-05-21T10:34:32.587Z,43.20
2017-05-21T10:37:04.891Z,43.10
2017-05-21T10:39:33.655Z,42.30
2017-05-21T10:42:05.523Z,42.20
2017-05-21T10:44:36.255Z,45.10
2017-05-21T10:47:05.968Z,41.70
2017-05-21T10:49:34.747Z,43.50
2017-05-21T10:52:03.679Z,45.00
2017-05-21T10:54:33.471Z,43.90
2017-05-21T10:57:03.163Z,44.50
2017-05-21T10:59:31.943Z,45.30
2017-05-21T11:02:02.767Z,44.80
2017-05-21T11:04:32.515Z,44.00
2017-05-21T11:07:01.287Z,43.70
2017-05-21T11:09:30.252Z,41.30
2017-05-21T11:11:59.075Z,40.50
2017-05-21T11:14:27.868Z,39.30
2017-05-21T11:16:56.720Z,38.90
2017-05-21T11:19:25.531Z,40.30
2017-05-21T11:21:54.307Z,40.40
2017-05-21T11:24:23.195Z,40.90
2017-05-21T11:26:51.991Z,40.00
2017-05-21T11:29:20.831Z,40.00
2017-05-21T11:31:49.671Z,40.30
2017-05-21T11:34:18.503Z,41.10
2017-05-21T11:36:47.344Z,38.40
2017-05-21T11:39:16.180Z,38.90
2017-05-21T11:41:45.007Z,39.70
2017-05-21T11:44:13.788Z,41.00
2017-05-21T11:46:42.602Z,40.80
2017-05-21T11:49:10.595Z,40.80
2017-05-21T11:51:40.302Z,41.50
2017-05-21T11:54:10.078Z,40.50
2017-05-21T11:56:38.858Z,40.90
2017-05-21T11:59:07.610Z,42.70
2017-05-21T12:01:36.442Z,41.30
2017-05-21T12:04:05.239Z,40.40
2017-05-21T12:06:34.958Z,40.30
2017-05-21T12:09:03.747Z,41.40
2017-05-21T12:11:32.634Z,41.60
2017-05-21T12:14:01.382Z,41.90
2017-05-21T12:16:30.202Z,41.70
2017-05-21T12:18:59.982Z,40.50
2017-05-21T12:21:28.763Z,40.00
2017-05-21T12:23:57.615Z,38.60
2017-05-21T12:26:26.422Z,38.20
2017-05-21T12:28:55.263Z,39.10
2017-05-21T12:31:24.078Z,39.80
2017-05-21T12:33:52.934Z,39.30
2017-05-21T12:36:21.750Z,37.30
2017-05-21T12:38:50.630Z,36.90
2017-05-21T12:41:19.438Z,37.40
2017-05-21T12:43:48.291Z,38.50
2017-05-21T12:46:17.142Z,39.40
2017-05-21T12:48:45.958Z,38.70
2017-05-21T12:51:14.719Z,37.90
2017-05-21T12:53:43.629Z,38.40
2017-05-21T12:56:12.390Z,40.10
2017-05-21T12:58:41.261Z,39.00
2017-05-21T13:01:10.081Z,37.10
2017-05-21T13:03:38.894Z,36.70
2017-05-21T13:06:07.746Z,37.20
2017-05-21T13:08:36.570Z,37.40
2017-05-21T13:11:05.433Z,38.50
2017-05-21T13:13:34.218Z,39.40
2017-05-21T13:16:03.230Z,39.40
2017-05-21T13:18:32.298Z,37.00
2017-05-21T13:21:01.234Z,39.90
2017-05-21T13:23:30.225Z,40.20
2017-05-21T13:25:59.066Z,40.40
2017-05-21T13:28:27.829Z,39.00
2017-05-21T13:30:56.670Z,39.10
2017-05-21T13:33:25.547Z,39.40
2017-05-21T13:35:56.253Z,38.80
2017-05-21T13:38:25.125Z,38.80
2017-05-21T13:40:53.905Z,39.10
2017-05-21T13:43:23.717Z,40.10
2017-05-21T13:45:55.853Z,39.20
2017-05-21T13:48:25.053Z,39.20
2017-05-21T13:50:54.845Z,39.70
2017-05-21T13:53:29.313Z,39.90
2017-05-21T13:55:57.125Z,39.20
2017-05-21T13:58:23.389Z,39.20
2017-05-21T14:00:50.348Z,41.20
2017-05-21T14:03:17.501Z,42.00
2017-05-21T14:05:44.545Z,41.60
2017-05-21T14:08:11.552Z,41.40
2017-05-21T14:10:40.584Z,41.80
2017-05-21T14:13:06.696Z,41.70
2017-05-21T14:15:33.592Z,42.60
2017-05-21T14:18:00.533Z,42.60
2017-05-21T14:20:26.724Z,42.60
2017-05-21T14:22:53.844Z,41.30
2017-05-21T14:25:20.748Z,41.70
2017-05-21T14:27:47.702Z,41.30
2017-05-21T14:30:14.608Z,41.30
2017-05-21T14:32:41.441Z,42.30
2017-05-21T14:35:08.324Z,43.10
2017-05-21T14:37:35.170Z,42.40
2017-05-21T14:40:01.983Z,41.40
2017-05-21T14:42:28.808Z,41.50
2017-05-21T14:44:55.728Z,41.60
2017-05-21T14:47:22.594Z,42.80
2017-05-21T14:49:49.388Z,42.60
2017-05-21T14:52:16.237Z,43.20
2017-05-21T14:54:43.096Z,43.60
2017-05-21T14:57:09.948Z,42.10
2017-05-21T14:59:39.232Z,42.40
2017-05-21T15:02:05.996Z,42.20
2017-05-21T15:04:32.796Z,43.10
2017-05-21T15:06:59.611Z,43.20
2017-05-21T15:09:26.396Z,42.40
2017-05-21T15:11:53.172Z,42.80
2017-05-21T15:14:20.068Z,41.90
2017-05-21T15:16:46.895Z,41.50
2017-05-21T15:19:13.989Z,41.20
2017-05-21T15:21:47.200Z,41.00
2017-05-21T15:24:18.179Z,41.90
2017-05-21T15:26:44.972Z,41.00
2017-05-21T15:29:11.804Z,42.10
2017-05-21T15:31:40.671Z,42.50
2017-05-21T15:34:08.572Z,43.10
2017-05-21T15:36:35.404Z,41.80
2017-05-21T15:39:02.312Z,42.60
2017-05-21T15:41:31.156Z,43.20
2017-05-21T15:43:57.967Z,43.10
2017-05-21T15:46:31.664Z,44.00
2017-05-21T15:48:58.531Z,42.90
2017-05-21T15:51:25.355Z,43.80
2017-05-21T15:53:52.195Z,43.00
2017-05-21T15:56:19.035Z,42.60
2017-05-21T15:58:45.960Z,43.00
2017-05-21T16:01:12.899Z,43.20
2017-05-21T16:03:40.812Z,43.90
2017-05-21T16:06:07.639Z,43.80
2017-05-21T16:08:34.471Z,43.10
2017-05-21T16:11:01.323Z,43.20
2017-05-21T16:13:28.268Z,44.20
2017-05-21T16:15:56.172Z,44.30
2017-05-21T16:18:23.081Z,44.30
2017-05-21T16:20:51.031Z,46.00
2017-05-21T16:23:21.628Z,45.90
2017-05-21T16:25:48.639Z,47.10
2017-05-21T16:28:15.735Z,47.70
2017-05-21T16:30:43.795Z,46.90
2017-05-21T16:33:10.787Z,47.30
2017-05-21T16:35:37.771Z,47.40
2017-05-21T16:38:04.675Z,46.20
2017-05-21T16:40:31.699Z,47.60
2017-05-21T16:43:03.859Z,48.00
2017-05-21T16:45:31.847Z,47.90
2017-05-21T16:47:58.819Z,47.80
2017-05-21T16:50:25.795Z,48.20
2017-05-21T16:52:52.879Z,48.40
2017-05-21T16:55:21.983Z,47.80
2017-05-21T16:57:50.059Z,47.90
2017-05-21T17:00:17.022Z,48.30
2017-05-21T17:02:43.987Z,47.90
2017-05-21T17:05:10.999Z,48.00
2017-05-21T17:07:38.060Z,48.00
2017-05-21T17:10:04.903Z,48.00
2017-05-21T17:12:32.863Z,48.90
2017-05-21T17:15:00.782Z,48.00
2017-05-21T17:17:27.871Z,48.20
2017-05-21T17:19:54.791Z,48.10
2017-05-21T17:22:21.698Z,49.30
2017-05-21T17:24:48.611Z,49.80
2017-05-21T17:27:15.538Z,49.60
2017-05-21T17:29:42.447Z,48.90
2017-05-21T17:32:10.403Z,49.20
2017-05-21T17:34:37.491Z,48.90
2017-05-21T17:37:04.446Z,49.20
2017-05-21T17:39:31.356Z,49.50
2017-05-21T17:41:58.310Z,47.80
2017-05-21T17:44:25.339Z,47.70
2017-05-21T17:46:52.290Z,46.40
2017-05-21T17:49:19.351Z,48.10
2017-05-21T17:51:46.287Z,50.00
2017-05-21T17:54:13.259Z,50.10
2017-05-21T17:56:40.222Z,48.80
2017-05-21T17:59:07.126Z,49.00
2017-05-21T18:01:33.994Z,47.30
2017-05-21T18:04:00.995Z,47.50
2017-05-21T18:06:28.906Z,47.40
2017-05-21T18:08:55.726Z,47.20
2017-05-21T18:11:22.630Z,47.40
2017-05-21T18:13:49.674Z,47.60
2017-05-21T18:16:16.446Z,47.80
2017-05-21T18:18:45.345Z,48.10
2017-05-21T18:21:12.250Z,47.80
2017-05-21T18:23:39.166Z,48.10
2017-05-21T18:26:06.078Z,48.50
2017-05-21T18:28:33.014Z,49.60
2017-05-21T18:30:59.981Z,50.60
2017-05-21T18:33:26.941Z,50.50
2017-05-21T18:35:53.849Z,49.90
2017-05-21T18:38:20.697Z,49.90
2017-05-21T18:40:47.573Z,50.50
2017-05-21T18:43:14.493Z,50.60
2017-05-21T18:45:56.257Z,50.80
2017-05-21T18:48:23.122Z,51.00
2017-05-21T18:50:49.957Z,51.00
2017-05-21T18:53:16.794Z,51.20
2017-05-21T18:55:43.601Z,51.30
2017-05-21T18:58:10.389Z,51.40
2017-05-21T19:00:37.213Z,52.20
2017-05-21T19:03:03.501Z,52.10
2017-05-21T19:05:30.309Z,53.10
2017-05-21T19:07:57.130Z,52.80
2017-05-21T19:10:23.941Z,52.60
2017-05-21T19:12:50.729Z,53.00
2017-05-21T19:15:17.529Z,53.40
2017-05-21T19:17:44.417Z,54.20
2017-05-21T19:20:11.217Z,54.50
2017-05-21T19:22:37.281Z,54.50
2017-05-21T19:25:14.117Z,55.40
2017-05-21T19:27:40.997Z,55.60
2017-05-21T19:30:07.893Z,55.70
2017-05-21T19:32:34.729Z,56.10
2017-05-21T19:35:00.820Z,56.10
2017-05-21T19:37:27.625Z,58.70
2017-05-21T19:39:54.489Z,58.50
2017-05-21T19:42:21.365Z,59.80
2017-05-21T19:44:48.321Z,59.90
2017-05-21T19:47:15.292Z,60.20
2017-05-21T19:49:42.181Z,61.00
2017-05-21T19:52:10.095Z,60.00
2017-05-21T19:54:42.757Z,59.40
2017-05-21T19:57:09.793Z,59.10
2017-05-21T19:59:36.789Z,59.60
2017-05-21T20:02:03.673Z,60.50
2017-05-21T20:04:36.361Z,62.20
2017-05-21T20:07:04.228Z,62.70
2017-05-21T20:09:32.648Z,62.70
2017-05-21T20:12:12.040Z,59.50
2017-05-21T20:14:43.688Z,59.20
2017-05-21T20:17:30.188Z,58.80
2017-05-21T20:20:01.652Z,58.10
2017-05-21T20:22:27.732Z,58.10
2017-05-21T20:24:54.540Z,57.50
2017-05-21T20:27:21.352Z,57.20
2017-05-21T20:29:48.168Z,56.70
2017-05-21T20:32:15.020Z,56.50
2017-05-21T20:34:41.868Z,56.70
2017-05-21T20:37:08.992Z,56.90
2017-05-21T20:39:41.504Z,56.70
2017-05-21T20:42:12.740Z,56.70
2017-05-21T20:44:43.099Z,56.50
2017-05-21T20:47:21.689Z,56.50
2017-05-21T20:49:48.559Z,56.50
2017-05-21T20:52:15.355Z,56.60
2017-05-21T20:54:50.369Z,57.20
2017-05-21T20:57:19.787Z,57.20
2017-05-21T20:59:50.123Z,57.20
2017-05-21T21:02:18.017Z,57.20
2017-05-21T21:04:45.971Z,57.30
2017-05-21T21:07:17.667Z,57.50
2017-05-21T21:09:57.376Z,57.50
2017-05-21T21:12:30.883Z,57.60
2017-05-21T21:15:01.363Z,57.50
2017-05-21T21:17:29.253Z,57.40
2017-05-21T21:19:58.176Z,57.70
2017-05-21T21:22:26.039Z,57.50
2017-05-21T21:24:57.535Z,57.70
2017-05-21T21:27:24.363Z,57.80
2017-05-21T21:29:56.187Z,57.80
2017-05-21T21:32:33.467Z,57.90
2017-05-21T21:35:00.267Z,57.90
2017-05-21T21:40:21.487Z,57.70
2017-05-21T21:42:50.443Z,57.60
2017-05-21T21:45:21.368Z,57.90
2017-05-21T21:47:54.751Z,57.90
2017-05-21T21:50:28.103Z,57.90
2017-05-21T21:55:51.911Z,58.10
2017-05-21T22:01:33.323Z,58.20
2017-05-21T22:04:14.003Z,58.30
2017-05-21T22:06:40.803Z,58.40
2017-05-21T22:09:07.703Z,58.40
2017-05-21T22:11:33.827Z,58.30
2017-05-21T22:14:04.270Z,58.50
2017-05-21T22:16:34.678Z,58.60
2017-05-21T22:19:01.534Z,58.70
2017-05-21T22:21:32.368Z,59.00
2017-05-21T22:24:11.879Z,59.10
2017-05-21T22:26:54.047Z,59.80
2017-05-21T22:29:20.854Z,59.30
2017-05-21T22:31:48.771Z,59.40
2017-05-21T22:34:23.682Z,59.50
2017-05-21T22:36:50.530Z,59.70
2017-05-21T22:39:17.439Z,59.70
2017-05-21T22:41:44.343Z,59.90
2017-05-21T22:44:11.194Z,60.00
2017-05-21T22:46:38.130Z,60.40
2017-05-21T22:51:41.454Z,60.40
2017-05-21T22:54:09.613Z,60.50
2017-05-21T22:56:36.620Z,60.40
2017-05-21T22:59:05.802Z,60.40
2017-05-21T23:01:32.674Z,60.40
2017-05-21T23:03:59.638Z,60.50
2017-05-21T23:06:26.670Z,61.30
2017-05-21T23:08:53.698Z,61.70
2017-05-21T23:11:20.594Z,62.10
2017-05-21T23:13:47.514Z,62.40
2017-05-21T23:16:17.766Z,62.70
2017-05-21T23:18:44.634Z,62.20
2017-05-21T23:21:11.510Z,61.80
2017-05-21T23:23:38.326Z,61.80
2017-05-21T23:26:27.842Z,61.60
2017-05-21T23:28:54.707Z,61.90
2017-05-21T23:31:27.690Z,62.20
2017-05-21T23:33:59.630Z,62.20
2017-05-21T23:36:27.562Z,62.40
2017-05-21T23:39:02.150Z,62.40
2017-05-21T23:41:32.545Z,62.90
2017-05-21T23:44:03.298Z,63.10
2017-05-21T23:46:33.738Z,63.30
2017-05-21T23:49:06.121Z,63.30
2017-05-21T23:51:32.990Z,63.60
2017-05-21T23:54:04.961Z,63.90
2017-05-21T23:56:31.878Z,64.00
2017-05-21T23:58:58.753Z,64.10
